Time;durP1;ratioP1;P1;durP2;ratioP2;P2;SDS_P1;SDS_P2;PMS_P1;PMS_P2;Temp;Humidity;BMP_temperature;BMP_pressure;BME280_temperature;BME280_humidity;BME280_pressure;Samples;Min_cycle;Max_cycle;Signal;HPM_P1;HPM_P2
2021/04/13 00:00:26;;;;;;;4.10;2.90;;;;;;;;;;5049772;28;20432;-67
2021/04/13 00:02:54;;;;;;;3.40;2.80;;;;;;;;;;5052024;28;20468;-67
2021/04/13 00:05:20;;;;;;;4.27;3.20;;;;;;;;;;5033619;28;20474;-66
2021/04/13 00:07:48;;;;;;;3.87;3.37;;;;;;;;;;5033655;28;20445;-66
2021/04/13 00:10:34;;;;;;;4.90;3.30;;;;;;;;;;5033366;28;20409;-67
2021/04/13 00:13:01;;;;;;;4.00;3.10;;;;;;;;;;5033627;28;20382;-67
2021/04/13 00:15:30;;;;;;;4.83;3.57;;;;;;;;;;5033527;28;20778;-66
2021/04/13 00:17:58;;;;;;;4.00;3.13;;;;;;;;;;5033778;28;20899;-66
2021/04/13 00:20:29;;;;;;;4.17;3.17;;;;;;;;;;5053397;28;20413;-66
2021/04/13 00:22:56;;;;;;;5.13;3.10;;;;;;;;;;5052159;28;20432;-67
2021/04/13 00:25:24;;;;;;;4.73;3.20;;;;;;;;;;5053135;28;20451;-65
2021/04/13 00:27:50;;;;;;;4.17;3.07;;;;;;;;;;5051518;28;20508;-68
2021/04/13 00:30:18;;;;;;;3.33;2.70;;;;;;;;;;5052664;28;20417;-67
2021/04/13 00:32:56;;;;;;;6.30;3.00;;;;;;;;;;5053238;28;20396;-66
2021/04/13 00:38:18;;;;;;;4.17;3.40;;;;;;;;;;5052225;28;20812;-67
2021/04/13 00:40:47;;;;;;;4.77;3.33;;;;;;;;;;5053649;28;20909;-66
2021/04/13 00:43:14;;;;;;;4.50;3.17;;;;;;;;;;5051992;28;20495;-66
2021/04/13 00:45:42;;;;;;;3.27;2.97;;;;;;;;;;5053204;28;20474;-66
2021/04/13 00:48:10;;;;;;;3.73;3.40;;;;;;;;;;5051055;28;20440;-67
2021/04/13 00:50:45;;;;;;;4.03;3.33;;;;;;;;;;5033222;28;20499;-66
2021/04/13 00:53:12;;;;;;;5.40;3.50;;;;;;;;;;5033125;28;20439;-67
2021/04/13 00:55:58;;;;;;;8.17;3.40;;;;;;;;;;5032983;28;20427;-66
2021/04/13 00:58:27;;;;;;;4.20;3.57;;;;;;;;;;5036281;28;20458;-67
2021/04/13 01:00:56;;;;;;;5.27;3.70;;;;;;;;;;5052924;28;20415;-66
2021/04/13 01:03:22;;;;;;;4.53;3.10;;;;;;;;;;5051783;28;20477;-66
2021/04/13 01:05:52;;;;;;;4.00;3.53;;;;;;;;;;5052918;28;20813;-66
2021/04/13 01:08:18;;;;;;;5.37;4.50;;;;;;;;;;5051851;28;20540;-65
2021/04/13 01:10:44;;;;;;;5.43;4.10;;;;;;;;;;5036950;28;20441;-65
2021/04/13 01:13:20;;;;;;;5.67;3.90;;;;;;;;;;5036954;28;20421;-65
2021/04/13 01:15:47;;;;;;;4.37;3.40;;;;;;;;;;5056664;28;20435;-66
2021/04/13 01:18:17;;;;;;;5.00;4.20;;;;;;;;;;5056990;28;20416;-66
2021/04/13 01:20:55;;;;;;;4.20;3.77;;;;;;;;;;5054285;28;20552;-67
2021/04/13 01:23:26;;;;;;;5.50;3.80;;;;;;;;;;5056524;28;20947;-67
2021/04/13 01:26:00;;;;;;;5.40;3.93;;;;;;;;;;5038257;28;20588;-66
2021/04/13 01:28:30;;;;;;;5.43;4.00;;;;;;;;;;5037037;28;20879;-67
2021/04/13 01:31:11;;;;;;;5.70;3.80;;;;;;;;;;5039238;28;20524;-66
2021/04/13 01:33:52;;;;;;;9.07;5.17;;;;;;;;;;5036597;28;20955;-65
2021/04/13 01:36:30;;;;;;;6.10;4.40;;;;;;;;;;5036813;28;20885;-66
2021/04/13 01:38:57;;;;;;;6.80;4.13;;;;;;;;;;5037989;28;20404;-67
2021/04/13 01:41:31;;;;;;;6.17;4.53;;;;;;;;;;5056655;28;20402;-67
2021/04/13 01:43:58;;;;;;;5.63;4.47;;;;;;;;;;5055419;28;20567;-67
2021/04/13 01:46:25;;;;;;;7.20;5.03;;;;;;;;;;5056110;28;20425;-66
2021/04/13 01:48:51;;;;;;;6.27;5.10;;;;;;;;;;5055806;28;20416;-68
2021/04/13 01:51:17;;;;;;;6.07;4.50;;;;;;;;;;5056490;28;20807;-67
2021/04/13 01:53:47;;;;;;;5.83;5.03;;;;;;;;;;5056194;28;20406;-66
2021/04/13 01:56:36;;;;;;;5.77;5.00;;;;;;;;;;5036705;28;20539;-68
2021/04/13 01:59:03;;;;;;;7.87;5.30;;;;;;;;;;5033969;28;20795;-66
2021/04/13 02:01:34;;;;;;;7.90;5.40;;;;;;;;;;5055971;28;20975;-67
2021/04/13 02:04:20;;;;;;;10.53;6.20;;;;;;;;;;5053929;28;20554;-66
2021/04/13 02:07:16;;;;;;;5.93;4.93;;;;;;;;;;5036738;28;20487;-66
2021/04/13 02:09:46;;;;;;;6.83;5.77;;;;;;;;;;5041804;28;20498;-67
2021/04/13 02:12:16;;;;;;;7.80;5.00;;;;;;;;;;5055995;28;20751;-67
2021/04/13 02:14:50;;;;;;;6.97;5.40;;;;;;;;;;5055003;28;20443;-66
2021/04/13 02:17:20;;;;;;;7.07;5.40;;;;;;;;;;5055925;28;20404;-66
2021/04/13 02:19:48;;;;;;;6.40;4.43;;;;;;;;;;5054513;28;20479;-66
2021/04/13 02:22:16;;;;;;;7.03;5.33;;;;;;;;;;5055264;28;20419;-66
2021/04/13 02:24:42;;;;;;;8.07;5.40;;;;;;;;;;5044543;28;20463;-66
2021/04/13 02:27:10;;;;;;;9.10;5.50;;;;;;;;;;5055554;28;20414;-66
2021/04/13 02:29:38;;;;;;;8.60;5.30;;;;;;;;;;5054969;28;20433;-67
2021/04/13 02:32:14;;;;;;;7.30;5.70;;;;;;;;;;5055782;28;20413;-67
2021/04/13 02:34:51;;;;;;;6.47;5.00;;;;;;;;;;5049910;28;21022;-67
2021/04/13 02:37:22;;;;;;;8.90;5.37;;;;;;;;;;5035695;28;20766;-67
2021/04/13 02:39:48;;;;;;;6.37;4.33;;;;;;;;;;5041154;28;20444;-67
2021/04/13 02:42:18;;;;;;;8.80;5.50;;;;;;;;;;5055145;28;20909;-66
2021/04/13 02:45:01;;;;;;;6.50;4.90;;;;;;;;;;5049132;28;20465;-65
2021/04/13 02:47:28;;;;;;;7.13;5.10;;;;;;;;;;5035503;28;20445;-66
2021/04/13 02:50:01;;;;;;;9.67;5.60;;;;;;;;;;5035245;28;20788;-65
2021/04/13 02:52:30;;;;;;;8.17;5.07;;;;;;;;;;5035112;28;20467;-65
2021/04/13 02:54:58;;;;;;;5.77;5.10;;;;;;;;;;5041000;28;20448;-65
2021/04/13 02:57:28;;;;;;;10.00;5.60;;;;;;;;;;5052427;28;20433;-66
2021/04/13 02:59:59;;;;;;;7.03;5.70;;;;;;;;;;5047923;28;20440;-66
2021/04/13 03:02:43;;;;;;;8.90;5.97;;;;;;;;;;5034980;28;20411;-66
2021/04/13 03:05:10;;;;;;;5.63;4.80;;;;;;;;;;5039161;28;20570;-66
2021/04/13 03:07:38;;;;;;;9.67;5.97;;;;;;;;;;5054810;28;20813;-66
2021/04/13 03:10:04;;;;;;;13.97;6.20;;;;;;;;;;5053226;28;20443;-66
2021/04/13 03:12:31;;;;;;;6.57;5.20;;;;;;;;;;5054719;28;20409;-66
2021/04/13 03:14:58;;;;;;;11.07;6.97;;;;;;;;;;5053629;28;20795;-66
2021/04/13 03:17:27;;;;;;;7.80;5.67;;;;;;;;;;5054405;28;20415;-66
2021/04/13 03:19:58;;;;;;;12.27;6.53;;;;;;;;;;5052223;28;20502;-66
2021/04/13 03:22:25;;;;;;;7.70;5.73;;;;;;;;;;5034450;28;20398;-66
2021/04/13 03:24:51;;;;;;;8.80;6.13;;;;;;;;;;5034025;28;20457;-66
2021/04/13 03:27:20;;;;;;;8.47;6.17;;;;;;;;;;5053888;28;20410;-66
2021/04/13 03:29:46;;;;;;;10.60;6.53;;;;;;;;;;5053335;28;20400;-66
2021/04/13 03:32:14;;;;;;;8.17;5.90;;;;;;;;;;5053730;28;20483;-66
2021/04/13 03:34:41;;;;;;;7.77;6.13;;;;;;;;;;5054431;28;20420;-66
2021/04/13 03:37:07;;;;;;;10.17;7.00;;;;;;;;;;5052147;28;20937;-66
2021/04/13 03:39:35;;;;;;;9.00;6.30;;;;;;;;;;5054339;28;20416;-66
2021/04/13 03:42:02;;;;;;;7.20;5.47;;;;;;;;;;5048782;28;20835;-66
2021/04/13 03:44:28;;;;;;;8.43;5.90;;;;;;;;;;5033958;28;20990;-66
2021/04/13 03:46:55;;;;;;;8.73;6.50;;;;;;;;;;5033745;28;20435;-66
2021/04/13 03:49:24;;;;;;;11.77;7.43;;;;;;;;;;5034408;28;20409;-66
2021/04/13 03:51:52;;;;;;;9.53;7.37;;;;;;;;;;5048369;28;20988;-66
2021/04/13 03:54:18;;;;;;;9.97;6.70;;;;;;;;;;5054080;28;20478;-66
2021/04/13 03:56:44;;;;;;;12.83;7.53;;;;;;;;;;5053037;28;20443;-66
2021/04/13 03:59:16;;;;;;;9.63;6.80;;;;;;;;;;5053911;28;20538;-66
2021/04/13 04:01:43;;;;;;;11.50;7.67;;;;;;;;;;5053000;28;20443;-67
2021/04/13 04:04:19;;;;;;;9.73;7.43;;;;;;;;;;5053673;28;20457;-66
2021/04/13 04:09:20;;;;;;;11.63;8.20;;;;;;;;;;5053951;28;20479;-66
2021/04/13 04:11:47;;;;;;;11.53;7.67;;;;;;;;;;5049676;28;20431;-66
2021/04/13 04:14:19;;;;;;;9.83;7.20;;;;;;;;;;5034221;28;20405;-66
2021/04/13 04:16:46;;;;;;;8.33;6.80;;;;;;;;;;5046658;28;20431;-65
2021/04/13 04:19:13;;;;;;;10.60;8.00;;;;;;;;;;5053908;28;20408;-66
2021/04/13 04:21:40;;;;;;;10.00;6.83;;;;;;;;;;5052604;28;20456;-66
2021/04/13 04:24:09;;;;;;;12.70;7.90;;;;;;;;;;5053358;28;20537;-66
2021/04/13 04:26:58;;;;;;;11.20;8.27;;;;;;;;;;5052508;28;20459;-66
2021/04/13 04:29:57;;;;;;;10.60;7.50;;;;;;;;;;5043214;28;20439;-66
2021/04/13 04:32:29;;;;;;;11.63;8.20;;;;;;;;;;5008770;28;20441;-66
2021/04/13 04:34:56;;;;;;;9.90;7.43;;;;;;;;;;5053392;28;20523;-67
2021/04/13 04:37:29;;;;;;;10.93;7.73;;;;;;;;;;5052341;28;20499;-66
2021/04/13 04:40:14;;;;;;;13.53;7.93;;;;;;;;;;5053625;28;20734;-66
2021/04/13 04:42:50;;;;;;;13.80;7.97;;;;;;;;;;5032789;28;20503;-66
2021/04/13 04:45:16;;;;;;;11.60;7.87;;;;;;;;;;5061230;23;20848;-72
2021/04/13 04:47:43;;;;;;;11.17;8.30;;;;;;;;;;5051217;28;20470;-70
2021/04/13 04:50:11;;;;;;;13.87;10.10;;;;;;;;;;5051550;28;20414;-70
2021/04/13 04:52:37;;;;;;;11.33;8.43;;;;;;;;;;5033688;28;20413;-70
2021/04/13 04:55:03;;;;;;;11.80;8.40;;;;;;;;;;5032642;28;20428;-70
2021/04/13 04:57:29;;;;;;;13.80;7.97;;;;;;;;;;5049739;28;20417;-70
2021/04/13 04:59:55;;;;;;;12.27;8.43;;;;;;;;;;5052955;28;20824;-70
2021/04/13 05:02:22;;;;;;;12.13;8.63;;;;;;;;;;5051526;28;20785;-70
2021/04/13 05:04:48;;;;;;;14.23;10.07;;;;;;;;;;5053016;28;20459;-70
2021/04/13 05:07:14;;;;;;;13.97;10.33;;;;;;;;;;5051570;28;20921;-70
2021/04/13 05:09:40;;;;;;;14.00;9.80;;;;;;;;;;5052517;28;20418;-70
2021/04/13 05:12:06;;;;;;;15.77;10.70;;;;;;;;;;5051416;28;20423;-70
2021/04/13 05:14:33;;;;;;;16.67;11.07;;;;;;;;;;5051251;28;20415;-70
2021/04/13 05:16:59;;;;;;;13.47;10.27;;;;;;;;;;5051616;28;20824;-70
2021/04/13 05:19:25;;;;;;;13.93;9.03;;;;;;;;;;5051166;28;20509;-70
2021/04/13 05:21:51;;;;;;;17.03;10.60;;;;;;;;;;5040655;28;20427;-70
2021/04/13 05:24:17;;;;;;;16.10;11.10;;;;;;;;;;5032429;28;20453;-70
2021/04/13 05:26:43;;;;;;;14.20;9.77;;;;;;;;;;5032250;28;20447;-70
2021/04/13 05:29:09;;;;;;;20.40;13.57;;;;;;;;;;5032490;28;20402;-70
2021/04/13 05:31:37;;;;;;;14.97;11.17;;;;;;;;;;5040654;28;20581;-70
2021/04/13 05:34:03;;;;;;;12.10;9.90;;;;;;;;;;5052264;28;20413;-70
2021/04/13 05:36:31;;;;;;;10.40;8.80;;;;;;;;;;5051306;28;20451;-70
2021/04/13 05:38:57;;;;;;;14.37;9.53;;;;;;;;;;5052185;28;20491;-70
2021/04/13 05:41:23;;;;;;;16.20;10.90;;;;;;;;;;5044856;28;20431;-70
2021/04/13 05:43:49;;;;;;;14.37;10.07;;;;;;;;;;5032585;28;20820;-70
2021/04/13 05:46:17;;;;;;;16.77;11.40;;;;;;;;;;5036698;28;20456;-70
2021/04/13 05:48:43;;;;;;;19.07;12.03;;;;;;;;;;5049669;28;20500;-70
2021/04/13 05:51:09;;;;;;;16.17;10.40;;;;;;;;;;5047592;28;20430;-70
2021/04/13 05:53:35;;;;;;;14.30;10.60;;;;;;;;;;5033709;28;20413;-70
2021/04/13 05:56:01;;;;;;;13.43;9.60;;;;;;;;;;5037826;28;20479;-70
2021/04/13 05:58:34;;;;;;;14.57;10.97;;;;;;;;;;5055894;28;20471;-70
2021/04/13 06:01:03;;;;;;;15.80;10.00;;;;;;;;;;5054893;28;21026;-70
2021/04/13 06:03:29;;;;;;;15.73;10.73;;;;;;;;;;5055619;28;20947;-70
2021/04/13 06:05:56;;;;;;;14.17;10.50;;;;;;;;;;5054437;28;20467;-70
2021/04/13 06:08:23;;;;;;;17.33;12.23;;;;;;;;;;5055936;28;20415;-70
2021/04/13 06:10:49;;;;;;;15.80;11.90;;;;;;;;;;5054702;28;20768;-70
2021/04/13 06:13:17;;;;;;;17.10;12.30;;;;;;;;;;5036067;28;20904;-70
2021/04/13 06:15:43;;;;;;;15.80;11.60;;;;;;;;;;5039923;28;20554;-70
2021/04/13 06:18:09;;;;;;;18.13;12.33;;;;;;;;;;5053765;28;20431;-70
2021/04/13 06:20:35;;;;;;;17.80;11.87;;;;;;;;;;5056511;28;20752;-70
2021/04/13 06:23:01;;;;;;;18.40;12.20;;;;;;;;;;5055005;28;20416;-70
2021/04/13 06:25:29;;;;;;;18.60;10.93;;;;;;;;;;5056450;28;20984;-71
2021/04/13 06:27:56;;;;;;;22.03;12.63;;;;;;;;;;5054225;28;20424;-70
2021/04/13 06:30:23;;;;;;;18.30;12.50;;;;;;;;;;5055486;28;20939;-70
2021/04/13 06:32:49;;;;;;;18.67;13.13;;;;;;;;;;5038722;28;20926;-69
2021/04/13 06:35:16;;;;;;;22.17;13.87;;;;;;;;;;5035401;28;20420;-70
2021/04/13 06:37:43;;;;;;;20.27;13.67;;;;;;;;;;5048533;28;20775;-69
2021/04/13 06:40:10;;;;;;;18.80;13.50;;;;;;;;;;5054875;28;20452;-69
2021/04/13 06:42:48;;;;;;;18.33;11.70;;;;;;;;;;5046920;28;21468;-69
2021/04/13 06:45:27;;;;;;;21.70;14.30;;;;;;;;;;5049349;28;20472;-69
2021/04/13 06:47:59;;;;;;;23.20;13.00;;;;;;;;;;5050383;28;20424;-70
2021/04/13 06:50:40;;;;;;;21.13;14.37;;;;;;;;;;5055954;28;20404;-70
2021/04/13 06:53:18;;;;;;;25.33;15.07;;;;;;;;;;5053249;28;20474;-70
2021/04/13 06:55:59;;;;;;;16.77;13.23;;;;;;;;;;5052653;28;20456;-70
2021/04/13 06:58:43;;;;;;;18.83;13.23;;;;;;;;;;5052678;28;20759;-70
2021/04/13 07:01:39;;;;;;;30.00;15.43;;;;;;;;;;5056319;28;20442;-69
2021/04/13 07:04:09;;;;;;;20.43;13.53;;;;;;;;;;5025786;28;20504;-69
2021/04/13 07:06:44;;;;;;;21.73;13.93;;;;;;;;;;5039725;28;20420;-70
2021/04/13 07:09:13;;;;;;;24.40;15.00;;;;;;;;;;5047055;28;20420;-72
2021/04/13 07:11:40;;;;;;;18.07;12.97;;;;;;;;;;5048001;28;20441;-70
2021/04/13 07:14:12;;;;;;;22.27;13.93;;;;;;;;;;5049238;28;20947;-70
2021/04/13 07:16:45;;;;;;;19.70;14.20;;;;;;;;;;5050495;28;20476;-71
2021/04/13 07:19:14;;;;;;;22.83;15.83;;;;;;;;;;5041393;28;20833;-71
2021/04/13 07:22:09;;;;;;;27.20;14.97;;;;;;;;;;5042175;28;20497;-70
2021/04/13 07:24:48;;;;;;;21.77;13.97;;;;;;;;;;5028533;28;22337;-70
2021/04/13 07:27:35;;;;;;;19.30;13.50;;;;;;;;;;5044240;28;20420;-69
2021/04/13 07:30:06;;;;;;;21.40;14.03;;;;;;;;;;5041108;28;20441;-70
2021/04/13 07:32:34;;;;;;;22.60;15.10;;;;;;;;;;5046629;28;20436;-70
2021/04/13 07:35:01;;;;;;;23.90;15.50;;;;;;;;;;5046514;28;20445;-70
2021/04/13 07:37:27;;;;;;;20.90;15.17;;;;;;;;;;5043227;28;20456;-70
2021/04/13 07:39:56;;;;;;;23.33;15.73;;;;;;;;;;5037286;28;20462;-70
2021/04/13 07:42:25;;;;;;;23.90;16.07;;;;;;;;;;5038533;28;20825;-70
2021/04/13 07:44:57;;;;;;;20.33;13.47;;;;;;;;;;5049975;28;20473;-70
2021/04/13 07:47:42;;;;;;;27.17;16.27;;;;;;;;;;5051662;28;20967;-70
2021/04/13 07:50:08;;;;;;;27.37;16.60;;;;;;;;;;5049603;28;20807;-70
2021/04/13 07:52:52;;;;;;;20.33;15.03;;;;;;;;;;5051249;28;20419;-70
2021/04/13 07:55:23;;;;;;;22.30;15.10;;;;;;;;;;5042970;28;21058;-70
2021/04/13 07:57:49;;;;;;;20.07;14.70;;;;;;;;;;5048794;28;20473;-70
2021/04/13 08:00:22;;;;;;;22.20;15.40;;;;;;;;;;5047212;28;20577;-70
2021/04/13 08:02:50;;;;;;;21.90;14.50;;;;;;;;;;5043833;28;20514;-70
2021/04/13 08:05:34;;;;;;;20.50;15.50;;;;;;;;;;5050947;28;20551;-70
2021/04/13 08:08:04;;;;;;;21.73;14.77;;;;;;;;;;5042935;28;20803;-70
2021/04/13 08:10:35;;;;;;;19.83;14.10;;;;;;;;;;5052051;28;20405;-70
2021/04/13 08:13:03;;;;;;;22.13;14.73;;;;;;;;;;5051172;28;20426;-70
2021/04/13 08:15:41;;;;;;;22.50;14.17;;;;;;;;;;5049370;28;20453;-70
2021/04/13 08:18:20;;;;;;;20.87;12.43;;;;;;;;;;5040249;28;20438;-70
2021/04/13 08:20:47;;;;;;;19.77;14.00;;;;;;;;;;5051510;28;20426;-70
2021/04/13 08:23:36;;;;;;;14.70;11.80;;;;;;;;;;5050003;28;20427;-70
2021/04/13 08:26:17;;;;;;;19.80;12.90;;;;;;;;;;5051784;28;20456;-70
2021/04/13 08:28:45;;;;;;;14.27;10.73;;;;;;;;;;5048156;28;20470;-71
2021/04/13 08:34:43;;;;;;;14.80;11.25;;;;;;;;;;5046578;28;20530;-69
2021/04/13 08:37:13;;;;;;;16.40;12.20;;;;;;;;;;5046664;28;20186;-72
2021/04/13 08:39:39;;;;;;;14.80;10.20;;;;;;;;;;5047270;28;20951;-69
2021/04/13 08:42:05;;;;;;;18.07;12.07;;;;;;;;;;5049261;28;20409;-70
2021/04/13 08:44:49;;;;;;;14.03;11.80;;;;;;;;;;5046304;28;20449;-68
2021/04/13 08:47:24;;;;;;;16.53;12.30;;;;;;;;;;5045344;28;20468;-69
2021/04/13 08:49:58;;;;;;;12.80;11.17;;;;;;;;;;5046602;28;20904;-70
2021/04/13 08:52:37;;;;;;;14.93;12.00;;;;;;;;;;5050489;28;20404;-70
2021/04/13 08:55:06;;;;;;;15.40;12.00;;;;;;;;;;5051829;28;20244;-70
2021/04/13 08:57:35;;;;;;;13.70;12.17;;;;;;;;;;5048962;28;20474;-70
2021/04/13 09:00:06;;;;;;;13.70;10.73;;;;;;;;;;5050862;28;20425;-70
2021/04/13 09:02:34;;;;;;;15.70;11.43;;;;;;;;;;5038854;28;20428;-68
2021/04/13 09:05:01;;;;;;;13.20;10.50;;;;;;;;;;5048899;28;20465;-68
2021/04/13 09:07:29;;;;;;;15.07;11.43;;;;;;;;;;5048801;28;20427;-67
2021/04/13 09:09:58;;;;;;;13.77;10.80;;;;;;;;;;5040808;28;20421;-72
2021/04/13 09:12:44;;;;;;;12.60;10.23;;;;;;;;;;5041619;28;20518;-70
2021/04/13 09:15:20;;;;;;;13.80;9.60;;;;;;;;;;5041501;28;20439;-69
2021/04/13 09:17:55;;;;;;;13.23;9.53;;;;;;;;;;5041591;28;20452;-70
2021/04/13 09:20:50;;;;;;;16.43;9.93;;;;;;;;;;5047580;28;20494;-69
2021/04/13 09:23:27;;;;;;;8.93;8.00;;;;;;;;;;5028581;28;20428;-72
2021/04/13 09:25:54;;;;;;;11.63;8.33;;;;;;;;;;5049693;28;20437;-72
2021/04/13 09:28:24;;;;;;;11.33;8.60;;;;;;;;;;5050373;28;20429;-71
2021/04/13 09:31:11;;;;;;;10.93;7.93;;;;;;;;;;5046938;28;20419;-71
2021/04/13 09:33:44;;;;;;;9.77;7.60;;;;;;;;;;5047820;28;20471;-71
2021/04/13 09:36:16;;;;;;;15.57;8.37;;;;;;;;;;5049927;28;20555;-72
2021/04/13 09:38:42;;;;;;;9.60;7.77;;;;;;;;;;5054155;28;21008;-70
2021/04/13 09:41:19;;;;;;;9.03;8.13;;;;;;;;;;5049715;28;20424;-69
2021/04/13 09:44:06;;;;;;;11.87;9.13;;;;;;;;;;5046695;28;20447;-70
2021/04/13 09:46:51;;;;;;;10.40;8.07;;;;;;;;;;5047990;28;20974;-71
2021/04/13 09:49:17;;;;;;;8.43;7.53;;;;;;;;;;5043277;28;20421;-73
2021/04/13 09:51:56;;;;;;;12.17;7.77;;;;;;;;;;5054448;28;20406;-70
2021/04/13 09:54:43;;;;;;;11.63;8.07;;;;;;;;;;5052472;28;21289;-70
2021/04/13 09:57:28;;;;;;;12.73;8.67;;;;;;;;;;5053799;28;20467;-67
2021/04/13 09:59:57;;;;;;;9.50;8.10;;;;;;;;;;5051382;28;20432;-69
2021/04/13 10:02:41;;;;;;;10.27;7.73;;;;;;;;;;5049759;28;20441;-68
2021/04/13 10:05:18;;;;;;;8.55;7.65;;;;;;;;;;5052663;28;20798;-70
2021/04/13 10:07:58;;;;;;;8.68;6.97;;;;;;;;;;5048397;28;20839;-70
2021/04/13 10:10:25;;;;;;;11.13;8.33;;;;;;;;;;5051262;28;20594;-70
2021/04/13 10:12:51;;;;;;;8.50;7.50;;;;;;;;;;5048331;28;20424;-68
2021/04/13 10:15:17;;;;;;;8.60;7.50;;;;;;;;;;5053202;28;20518;-72
2021/04/13 10:18:12;;;;;;;9.30;6.27;;;;;;;;;;5045510;28;20479;-68
2021/04/13 10:20:48;;;;;;;6.50;5.90;;;;;;;;;;5042019;28;20926;-71
2021/04/13 10:23:33;;;;;;;8.20;6.83;;;;;;;;;;5046405;28;20424;-70
2021/04/13 10:26:22;;;;;;;8.68;7.10;;;;;;;;;;5052728;28;20436;-72
2021/04/13 10:28:57;;;;;;;8.07;6.67;;;;;;;;;;5029755;28;21837;-73
2021/04/13 10:32:01;;;;;;;8.93;7.17;;;;;;;;;;5050568;28;20421;-73
2021/04/13 10:34:45;;;;;;;7.97;6.80;;;;;;;;;;5050793;28;21008;-71
2021/04/13 10:37:30;;;;;;;8.13;6.13;;;;;;;;;;5043760;28;20417;-68
2021/04/13 10:40:02;;;;;;;9.20;6.93;;;;;;;;;;5047860;28;20459;-72
2021/04/13 10:42:34;;;;;;;8.63;6.23;;;;;;;;;;5052847;28;20420;-73
2021/04/13 10:45:12;;;;;;;6.73;5.33;;;;;;;;;;5048805;28;20473;-72
2021/04/13 10:47:38;;;;;;;7.40;5.50;;;;;;;;;;5048317;28;20417;-70
2021/04/13 10:50:16;;;;;;;8.30;7.20;;;;;;;;;;5049843;28;20835;-69
2021/04/13 10:52:55;;;;;;;5.87;5.03;;;;;;;;;;5053272;28;20440;-72
2021/04/13 10:55:30;;;;;;;7.17;4.90;;;;;;;;;;5046098;28;20468;-70
2021/04/13 10:57:56;;;;;;;8.77;5.80;;;;;;;;;;5050390;28;20435;-70
2021/04/13 11:00:41;;;;;;;9.03;5.90;;;;;;;;;;5043386;28;20417;-69
2021/04/13 11:03:25;;;;;;;11.90;6.00;;;;;;;;;;5046413;28;20478;-68
2021/04/13 11:05:52;;;;;;;7.50;5.80;;;;;;;;;;5050082;28;20461;-75
2021/04/13 11:08:34;;;;;;;7.17;5.87;;;;;;;;;;5050726;28;20420;-71
2021/04/13 11:11:19;;;;;;;8.17;5.07;;;;;;;;;;5049785;28;20552;-68
2021/04/13 11:14:03;;;;;;;7.77;6.00;;;;;;;;;;5048592;28;20424;-69
2021/04/13 11:16:42;;;;;;;8.77;5.43;;;;;;;;;;5048870;28;21301;-68
2021/04/13 11:19:25;;;;;;;5.17;4.23;;;;;;;;;;5050297;28;20464;-68
2021/04/13 11:22:10;;;;;;;12.50;5.50;;;;;;;;;;5045062;28;20796;-68
2021/04/13 11:24:45;;;;;;;8.80;5.40;;;;;;;;;;5044489;28;20441;-68
2021/04/13 11:27:40;;;;;;;6.40;4.83;;;;;;;;;;5050577;28;20182;-69
2021/04/13 11:30:18;;;;;;;5.60;5.07;;;;;;;;;;5013170;28;20486;-71
2021/04/13 11:33:03;;;;;;;7.22;5.28;;;;;;;;;;5050243;28;20407;-69
2021/04/13 11:35:34;;;;;;;6.68;5.68;;;;;;;;;;5051738;28;20420;-69
2021/04/13 11:38:07;;;;;;;6.70;5.43;;;;;;;;;;5052309;28;20707;-70
2021/04/13 11:40:43;;;;;;;10.43;5.90;;;;;;;;;;5050728;28;20431;-68
2021/04/13 11:43:18;;;;;;;5.40;4.70;;;;;;;;;;5047383;28;20432;-68
2021/04/13 11:45:49;;;;;;;7.53;6.37;;;;;;;;;;5048095;28;20219;-68
2021/04/13 11:48:36;;;;;;;11.48;7.50;;;;;;;;;;5050523;28;20498;-67
2021/04/13 11:51:05;;;;;;;6.07;5.27;;;;;;;;;;5049304;28;20260;-73
2021/04/13 11:53:31;;;;;;;7.23;5.50;;;;;;;;;;5074646;22;20405;-66
2021/04/13 11:55:57;;;;;;;6.17;4.07;;;;;;;;;;5061749;28;20432;-69
2021/04/13 11:58:25;;;;;;;5.32;3.95;;;;;;;;;;5055039;28;20425;-67
2021/04/13 12:00:55;;;;;;;4.63;4.23;;;;;;;;;;5056384;28;20173;-67
2021/04/13 12:03:28;;;;;;;4.97;3.90;;;;;;;;;;5050527;28;20439;-67
2021/04/13 12:05:55;;;;;;;4.00;3.60;;;;;;;;;;5054369;28;20500;-71
2021/04/13 12:08:30;;;;;;;6.00;4.67;;;;;;;;;;5058994;28;20421;-68
2021/04/13 12:10:58;;;;;;;5.47;4.07;;;;;;;;;;5055313;28;20424;-67
2021/04/13 12:13:36;;;;;;;4.80;4.30;;;;;;;;;;5057666;28;20500;-68
2021/04/13 12:16:04;;;;;;;5.07;3.70;;;;;;;;;;5051237;28;20424;-67
2021/04/13 12:18:36;;;;;;;6.33;4.13;;;;;;;;;;5053787;28;20779;-67
2021/04/13 12:21:11;;;;;;;6.77;3.40;;;;;;;;;;5050253;28;20508;-67
2021/04/13 12:23:58;;;;;;;4.57;3.63;;;;;;;;;;5050345;28;20466;-67
2021/04/13 12:26:30;;;;;;;5.53;4.00;;;;;;;;;;5049050;28;20429;-67
2021/04/13 12:28:56;;;;;;;4.70;3.70;;;;;;;;;;5043592;28;20882;-66
2021/04/13 12:31:24;;;;;;;5.30;4.37;;;;;;;;;;5016558;28;20432;-67
2021/04/13 12:33:52;;;;;;;6.87;5.00;;;;;;;;;;5049838;28;20440;-67
2021/04/13 12:36:37;;;;;;;6.40;5.70;;;;;;;;;;5047617;28;20826;-67
2021/04/13 12:39:04;;;;;;;5.77;4.00;;;;;;;;;;5051949;28;20516;-67
2021/04/13 12:41:52;;;;;;;7.93;4.77;;;;;;;;;;5048493;28;20826;-67
2021/04/13 12:44:18;;;;;;;10.07;5.07;;;;;;;;;;5051409;28;20941;-67
2021/04/13 12:46:46;;;;;;;5.70;4.37;;;;;;;;;;5039899;28;20439;-67
2021/04/13 12:49:12;;;;;;;5.27;4.30;;;;;;;;;;5032830;28;20398;-66
2021/04/13 12:51:56;;;;;;;6.40;4.50;;;;;;;;;;5050231;28;20843;-66
2021/04/13 12:54:28;;;;;;;6.33;4.50;;;;;;;;;;5048749;28;20508;-67
2021/04/13 12:56:56;;;;;;;6.40;4.57;;;;;;;;;;5042050;28;20773;-66
2021/04/13 12:59:24;;;;;;;6.57;4.53;;;;;;;;;;5038565;28;20420;-67
2021/04/13 13:01:50;;;;;;;4.43;3.40;;;;;;;;;;5039610;28;20421;-67
2021/04/13 13:04:18;;;;;;;3.73;3.40;;;;;;;;;;5051039;28;20459;-66
2021/04/13 13:06:52;;;;;;;3.37;3.00;;;;;;;;;;5051100;28;20484;-66
2021/04/13 13:09:26;;;;;;;5.07;4.47;;;;;;;;;;5050835;28;20515;-66
2021/04/13 13:11:59;;;;;;;5.33;4.53;;;;;;;;;;5051451;28;20420;-66
2021/04/13 13:14:26;;;;;;;5.83;4.50;;;;;;;;;;5054871;28;20440;-66
2021/04/13 13:16:56;;;;;;;5.20;4.37;;;;;;;;;;5054582;28;20421;-67
2021/04/13 13:19:30;;;;;;;5.50;4.60;;;;;;;;;;5050846;28;20421;-67
2021/04/13 13:21:57;;;;;;;6.63;4.20;;;;;;;;;;5049707;28;20474;-66
2021/04/13 13:24:31;;;;;;;6.70;4.63;;;;;;;;;;5053749;28;20463;-66
2021/04/13 13:26:57;;;;;;;7.33;4.70;;;;;;;;;;5051297;28;20751;-66
2021/04/13 13:29:23;;;;;;;10.47;4.70;;;;;;;;;;5047670;28;20425;-66
2021/04/13 13:31:50;;;;;;;7.43;5.37;;;;;;;;;;5045292;28;20842;-66
2021/04/13 13:34:18;;;;;;;6.30;4.23;;;;;;;;;;5045325;28;20495;-67
2021/04/13 13:36:45;;;;;;;6.20;5.20;;;;;;;;;;5044800;28;20424;-66
2021/04/13 13:39:14;;;;;;;5.83;4.87;;;;;;;;;;5045591;28;20885;-66
2021/04/13 13:41:41;;;;;;;6.23;4.10;;;;;;;;;;5050673;28;20459;-67
2021/04/13 13:44:16;;;;;;;5.33;4.03;;;;;;;;;;5052339;28;20514;-65
2021/04/13 13:46:42;;;;;;;4.70;3.17;;;;;;;;;;5051132;28;20426;-67
2021/04/13 13:49:26;;;;;;;8.53;4.30;;;;;;;;;;5053548;28;20487;-67
2021/04/13 13:52:00;;;;;;;6.97;4.93;;;;;;;;;;5054031;28;20412;-67
2021/04/13 13:54:27;;;;;;;5.43;4.93;;;;;;;;;;5049453;28;20452;-66
2021/04/13 13:56:53;;;;;;;12.27;5.97;;;;;;;;;;5048929;28;20472;-67
2021/04/13 13:59:21;;;;;;;9.30;5.57;;;;;;;;;;5056990;28;20422;-67
2021/04/13 14:02:14;;;;;;;8.00;5.57;;;;;;;;;;5049916;28;20445;-67
2021/04/13 14:04:41;;;;;;;6.40;5.70;;;;;;;;;;5013953;28;20856;-68
2021/04/13 14:07:08;;;;;;;6.37;4.63;;;;;;;;;;5048128;28;20834;-67
2021/04/13 14:09:35;;;;;;;6.60;4.33;;;;;;;;;;5054172;28;20443;-67
2021/04/13 14:12:19;;;;;;;6.90;5.20;;;;;;;;;;5053089;28;20436;-67
2021/04/13 14:14:45;;;;;;;6.47;4.70;;;;;;;;;;5057693;28;20791;-67
2021/04/13 14:17:13;;;;;;;6.57;4.20;;;;;;;;;;5048461;28;20429;-67
2021/04/13 14:19:39;;;;;;;4.97;4.47;;;;;;;;;;5048045;28;20482;-67
2021/04/13 14:22:09;;;;;;;6.20;4.57;;;;;;;;;;5055203;28;21005;-67
2021/04/13 14:24:35;;;;;;;7.07;5.47;;;;;;;;;;5045509;28;20513;-67
2021/04/13 14:27:16;;;;;;;8.20;4.70;;;;;;;;;;5051571;28;20432;-67
2021/04/13 14:29:43;;;;;;;7.40;4.97;;;;;;;;;;5052976;28;20443;-67
2021/04/13 14:32:09;;;;;;;7.20;5.00;;;;;;;;;;5044180;28;20922;-67
2021/04/13 14:34:37;;;;;;;7.07;4.97;;;;;;;;;;5040042;28;20455;-67
2021/04/13 14:37:15;;;;;;;10.70;7.40;;;;;;;;;;5048884;28;20488;-67
2021/04/13 14:39:44;;;;;;;5.50;5.00;;;;;;;;;;5045815;28;20416;-66
2021/04/13 14:42:11;;;;;;;10.33;5.57;;;;;;;;;;5046255;28;20436;-67
2021/04/13 14:44:37;;;;;;;6.80;4.77;;;;;;;;;;5044551;28;20555;-67
2021/04/13 14:47:04;;;;;;;7.83;5.07;;;;;;;;;;5043456;28;20433;-67
2021/04/13 14:49:30;;;;;;;6.37;5.00;;;;;;;;;;5047833;28;20478;-67
2021/04/13 14:51:56;;;;;;;7.33;6.07;;;;;;;;;;5052143;28;20424;-66
2021/04/13 14:54:22;;;;;;;8.23;5.33;;;;;;;;;;5059181;28;20468;-66
2021/04/13 14:56:50;;;;;;;6.27;4.83;;;;;;;;;;5051573;28;20432;-66
2021/04/13 14:59:16;;;;;;;9.80;5.00;;;;;;;;;;5056331;28;20422;-66
2021/04/13 15:01:42;;;;;;;5.30;4.30;;;;;;;;;;5057310;28;20452;-66
2021/04/13 15:04:08;;;;;;;4.40;4.00;;;;;;;;;;5062555;28;20456;-66
2021/04/13 15:06:34;;;;;;;5.67;4.70;;;;;;;;;;5052903;28;20511;-67
2021/04/13 15:09:00;;;;;;;5.60;3.80;;;;;;;;;;5061094;28;20438;-67